Time;durP1;ratioP1;P1;durP2;ratioP2;P2;SDS_P1;SDS_P2;PMS_P1;PMS_P2;Temp;Humidity;BMP_temperature;BMP_pressure;BME280_temperature;BME280_humidity;BME280_pressure;Samples;Min_cycle;Max_cycle;Signal;HPM_P1;HPM_P2
2024/02/27 00:01:59;;;;;;;7.43;1.27;;;4.80;99.90;;;;;;5107077;28;20036;-69
2024/02/27 00:04:26;;;;;;;8.55;1.73;;;4.80;99.90;;;;;;5106990;28;20043;-68
2024/02/27 00:06:54;;;;;;;12.73;3.08;;;4.80;99.90;;;;;;5106926;28;20181;-69
2024/02/27 00:09:22;;;;;;;15.98;2.92;;;4.80;99.90;;;;;;5100372;28;20413;-69
2024/02/27 00:11:49;;;;;;;6.68;1.40;;;4.90;99.90;;;;;;5085605;28;20050;-70
2024/02/27 00:14:16;;;;;;;7.18;1.63;;;4.90;99.90;;;;;;5101359;28;20066;-71
2024/02/27 00:16:43;;;;;;;20.48;2.28;;;4.90;99.90;;;;;;5106960;28;20069;-69
2024/02/27 00:19:10;;;;;;;9.10;1.70;;;4.90;99.90;;;;;;5106516;28;20039;-70
2024/02/27 00:21:36;;;;;;;4.57;1.48;;;5.00;99.90;;;;;;5099860;28;20412;-70
2024/02/27 00:24:04;;;;;;;4.65;1.33;;;5.00;99.90;;;;;;5105739;28;20082;-69
2024/02/27 00:26:30;;;;;;;10.07;1.98;;;5.00;99.90;;;;;;5089037;28;20548;-69
2024/02/27 00:28:57;;;;;;;12.30;2.08;;;5.10;99.90;;;;;;5098448;28;20052;-68
2024/02/27 00:31:24;;;;;;;10.25;1.65;;;5.10;99.90;;;;;;5093907;28;20409;-69
2024/02/27 00:33:51;;;;;;;8.02;1.77;;;5.10;99.90;;;;;;5089241;28;20051;-69
2024/02/27 00:36:18;;;;;;;7.00;1.65;;;5.10;99.90;;;;;;5094893;28;20102;-69
2024/02/27 00:38:45;;;;;;;10.25;2.85;;;5.10;99.90;;;;;;5104631;28;20138;-69
2024/02/27 00:41:12;;;;;;;9.32;1.50;;;5.20;99.90;;;;;;5107482;28;20035;-69
2024/02/27 00:43:39;;;;;;;6.32;1.58;;;5.20;99.90;;;;;;5106293;28;20054;-69
2024/02/27 00:46:05;;;;;;;7.68;1.50;;;5.20;99.90;;;;;;5105738;28;20462;-69
2024/02/27 00:48:34;;;;;;;6.95;1.63;;;5.20;99.90;;;;;;5106072;28;20534;-69
2024/02/27 00:51:01;;;;;;;8.77;2.47;;;5.10;99.90;;;;;;5106400;28;20116;-69
2024/02/27 00:53:28;;;;;;;12.23;2.80;;;5.10;99.90;;;;;;5106971;28;20050;-69
2024/02/27 00:55:55;;;;;;;8.65;2.28;;;5.10;99.90;;;;;;5105780;28;20052;-69
2024/02/27 00:58:26;;;;;;;9.73;2.45;;;5.00;99.90;;;;;;5106008;28;20044;-69
2024/02/27 01:00:53;;;;;;;7.53;1.80;;;5.00;99.90;;;;;;5099432;28;20460;-69
2024/02/27 01:03:20;;;;;;;11.57;2.15;;;4.90;99.90;;;;;;5100257;28;20479;-69
2024/02/27 01:05:46;;;;;;;11.02;1.90;;;4.90;99.90;;;;;;5107023;28;20054;-69
2024/02/27 01:08:13;;;;;;;5.43;2.17;;;4.90;99.90;;;;;;5105218;28;20043;-68
2024/02/27 01:10:40;;;;;;;4.15;1.30;;;4.80;99.90;;;;;;5104771;28;20048;-69
2024/02/27 01:13:07;;;;;;;9.60;1.70;;;4.70;99.90;;;;;;5105870;28;20500;-70
2024/02/27 01:15:34;;;;;;;13.02;1.88;;;4.70;99.90;;;;;;5099636;28;20048;-69
2024/02/27 01:18:02;;;;;;;3.25;1.23;;;4.70;99.90;;;;;;5105414;28;20124;-69
2024/02/27 01:20:29;;;;;;;9.63;1.75;;;4.70;99.90;;;;;;5098938;28;20123;-70
2024/02/27 01:22:56;;;;;;;6.90;2.00;;;4.60;99.90;;;;;;5100028;28;20356;-69
2024/02/27 01:25:23;;;;;;;5.57;1.33;;;4.60;99.90;;;;;;5097804;28;20526;-68
2024/02/27 01:27:50;;;;;;;12.93;2.00;;;4.60;99.90;;;;;;5105780;28;20040;-69
2024/02/27 01:30:16;;;;;;;10.05;1.52;;;4.50;99.90;;;;;;5079501;28;20546;-69
2024/02/27 01:32:45;;;;;;;15.07;2.30;;;4.50;99.90;;;;;;5087315;28;20135;-70
2024/02/27 01:35:12;;;;;;;7.30;1.65;;;4.50;99.90;;;;;;5099670;28;20044;-69
2024/02/27 01:37:40;;;;;;;5.85;1.75;;;4.50;99.90;;;;;;5106017;28;20134;-69
2024/02/27 01:40:08;;;;;;;9.02;2.17;;;4.40;99.90;;;;;;5099901;28;20062;-69
2024/02/27 01:42:34;;;;;;;5.75;1.65;;;4.40;99.90;;;;;;5098240;28;20121;-69
2024/02/27 01:45:02;;;;;;;8.52;1.88;;;4.50;99.90;;;;;;5087809;28;20083;-69
2024/02/27 01:47:30;;;;;;;7.95;1.25;;;4.50;99.90;;;;;;5087707;28;20043;-69
2024/02/27 01:49:57;;;;;;;12.43;1.77;;;4.50;99.90;;;;;;5064744;28;20134;-69
2024/02/27 01:52:24;;;;;;;10.23;1.85;;;4.50;99.90;;;;;;5087914;28;20075;-69
2024/02/27 01:54:51;;;;;;;3.85;1.08;;;4.50;99.90;;;;;;5096479;28;20113;-69
2024/02/27 01:57:19;;;;;;;8.55;1.90;;;4.60;99.90;;;;;;5071092;28;20492;-69
2024/02/27 01:59:46;;;;;;;5.60;1.80;;;4.60;99.90;;;;;;5084043;28;20082;-69
2024/02/27 02:02:14;;;;;;;7.95;1.52;;;4.60;99.90;;;;;;5091350;28;20046;-69
2024/02/27 02:04:41;;;;;;;11.38;2.00;;;4.70;99.90;;;;;;5091319;28;20055;-69
2024/02/27 02:07:09;;;;;;;8.15;1.60;;;4.60;99.90;;;;;;5107131;28;20488;-69
2024/02/27 02:09:36;;;;;;;5.82;2.00;;;4.60;99.90;;;;;;5081598;28;20052;-70
2024/02/27 02:12:03;;;;;;;7.40;1.70;;;4.70;99.90;;;;;;5108592;28;20040;-70
2024/02/27 02:14:30;;;;;;;9.25;3.05;;;4.70;99.90;;;;;;5110327;28;20066;-67
2024/02/27 02:16:57;;;;;;;5.95;1.50;;;4.70;99.90;;;;;;5079832;28;20111;-68
2024/02/27 02:19:24;;;;;;;10.35;1.92;;;4.70;99.90;;;;;;5074647;28;20048;-68
2024/02/27 02:21:51;;;;;;;8.40;1.65;;;4.50;99.90;;;;;;5106253;28;20062;-69
2024/02/27 02:24:19;;;;;;;6.38;2.00;;;4.80;99.90;;;;;;5090621;28;20058;-69
2024/02/27 02:26:46;;;;;;;11.40;2.20;;;4.70;99.90;;;;;;5077378;28;20631;-68
2024/02/27 02:29:12;;;;;;;4.90;1.60;;;4.70;99.90;;;;;;5113495;28;20039;-69
2024/02/27 02:31:39;;;;;;;16.73;2.15;;;4.60;99.90;;;;;;5107401;28;20548;-68
2024/02/27 02:34:06;;;;;;;10.48;2.22;;;4.60;99.90;;;;;;5091324;28;20052;-69
2024/02/27 02:36:33;;;;;;;8.38;1.85;;;4.60;99.90;;;;;;5096544;28;20044;-69
2024/02/27 02:39:00;;;;;;;7.78;2.08;;;4.50;99.90;;;;;;5106324;28;20484;-70
2024/02/27 02:41:27;;;;;;;7.38;1.65;;;4.60;99.90;;;;;;5097130;28;20040;-68
2024/02/27 02:43:54;;;;;;;7.07;1.60;;;4.60;99.90;;;;;;5093140;28;20442;-68
2024/02/27 02:46:21;;;;;;;6.72;3.08;;;4.70;99.90;;;;;;5107819;28;20259;-69
2024/02/27 02:48:48;;;;;;;5.68;1.70;;;4.60;99.90;;;;;;5108582;28;20043;-68
2024/02/27 02:51:15;;;;;;;15.15;3.30;;;4.60;99.90;;;;;;5097902;28;20052;-69
2024/02/27 02:53:42;;;;;;;5.78;2.13;;;4.60;99.90;;;;;;5072283;28;20085;-69
2024/02/27 02:56:09;;;;;;;6.68;1.48;;;4.70;99.90;;;;;;5102956;28;20088;-68
2024/02/27 02:58:35;;;;;;;11.68;1.77;;;4.70;99.90;;;;;;5109479;28;20176;-69
2024/02/27 03:01:02;;;;;;;11.13;1.90;;;4.70;99.90;;;;;;5102998;28;20043;-68
2024/02/27 03:03:29;;;;;;;7.07;1.45;;;4.70;99.90;;;;;;5104125;28;20047;-69
2024/02/27 03:05:56;;;;;;;9.40;1.80;;;4.70;99.90;;;;;;5094657;28;20062;-69
2024/02/27 03:08:24;;;;;;;8.43;1.60;;;4.70;99.90;;;;;;5104210;28;20043;-69
2024/02/27 03:10:51;;;;;;;10.40;1.30;;;4.70;99.90;;;;;;5108567;28;20044;-69
2024/02/27 03:13:18;;;;;;;4.80;1.50;;;4.60;99.90;;;;;;5090885;28;20144;-69
2024/02/27 03:15:45;;;;;;;7.15;1.65;;;4.60;99.90;;;;;;5104605;28;20106;-69
2024/02/27 03:18:12;;;;;;;7.10;1.58;;;4.60;99.90;;;;;;5106520;28;20670;-69
2024/02/27 03:20:39;;;;;;;11.50;1.70;;;4.60;99.90;;;;;;5099514;28;20044;-68
2024/02/27 03:23:05;;;;;;;10.35;1.70;;;4.60;99.90;;;;;;5092418;28;20075;-69
2024/02/27 03:25:32;;;;;;;6.55;1.40;;;4.50;99.90;;;;;;5101350;28;20047;-71
2024/02/27 03:27:59;;;;;;;6.97;1.70;;;4.50;99.90;;;;;;5097616;28;20473;-69
2024/02/27 03:30:26;;;;;;;10.98;1.65;;;4.50;99.90;;;;;;5105573;28;20047;-70
2024/02/27 03:32:53;;;;;;;9.10;4.65;;;4.40;99.90;;;;;;5109428;28;20040;-69
2024/02/27 03:35:21;;;;;;;6.25;2.15;;;4.40;99.90;;;;;;5099528;28;20047;-70
2024/02/27 03:37:48;;;;;;;10.70;1.95;;;4.40;99.90;;;;;;5105125;28;20109;-69
2024/02/27 03:40:15;;;;;;;6.55;2.15;;;4.40;99.90;;;;;;5107321;28;20043;-69
2024/02/27 03:42:42;;;;;;;7.47;2.67;;;4.40;99.90;;;;;;5105982;28;20036;-69
2024/02/27 03:45:10;;;;;;;5.40;1.30;;;4.40;99.90;;;;;;5108786;28;20242;-69
2024/02/27 03:47:37;;;;;;;5.57;2.00;;;4.30;99.90;;;;;;5105712;28;20332;-68
2024/02/27 03:50:05;;;;;;;11.95;2.20;;;4.30;99.90;;;;;;5107178;28;20055;-68
2024/02/27 03:52:31;;;;;;;7.63;1.50;;;4.20;99.90;;;;;;5101484;28;20108;-67
2024/02/27 03:54:59;;;;;;;8.82;2.05;;;4.20;99.90;;;;;;5103821;28;20054;-68
2024/02/27 03:57:25;;;;;;;7.55;2.35;;;4.20;99.90;;;;;;5102255;28;20043;-68
2024/02/27 03:59:52;;;;;;;9.45;1.80;;;4.20;99.90;;;;;;5106026;28;20053;-68
2024/02/27 04:02:19;;;;;;;10.23;1.85;;;4.20;99.90;;;;;;5100583;28;20480;-68
2024/02/27 04:04:46;;;;;;;4.45;1.63;;;4.10;99.90;;;;;;5105300;28;20047;-68
2024/02/27 04:07:13;;;;;;;6.03;1.52;;;4.20;99.90;;;;;;5103951;28;20040;-69
2024/02/27 04:09:40;;;;;;;4.97;1.30;;;4.20;99.90;;;;;;5108013;28;20073;-69
2024/02/27 04:12:07;;;;;;;7.35;1.95;;;4.10;99.90;;;;;;5102236;28;20035;-69
2024/02/27 04:14:34;;;;;;;3.80;1.52;;;4.10;99.90;;;;;;5101626;28;20052;-69
2024/02/27 04:17:02;;;;;;;7.15;1.30;;;4.10;99.90;;;;;;5107324;28;20576;-68
2024/02/27 04:19:29;;;;;;;11.60;1.85;;;4.10;99.90;;;;;;5107099;28;20492;-69
2024/02/27 04:21:56;;;;;;;9.77;1.75;;;4.10;99.90;;;;;;5106531;28;20047;-69
2024/02/27 04:24:23;;;;;;;12.90;2.00;;;4.10;99.90;;;;;;5106525;28;20079;-68
2024/02/27 04:26:49;;;;;;;16.25;1.60;;;4.10;99.90;;;;;;5107323;28;20105;-68
2024/02/27 04:29:16;;;;;;;11.70;1.98;;;4.10;99.90;;;;;;5096939;28;20044;-69
2024/02/27 04:31:45;;;;;;;6.18;1.67;;;4.10;99.90;;;;;;5087247;28;20039;-68
2024/02/27 04:34:11;;;;;;;5.82;1.80;;;4.00;99.90;;;;;;5097750;28;20048;-68
2024/02/27 04:36:44;;;;;;;5.22;1.70;;;4.00;99.90;;;;;;5102264;28;20048;-69
2024/02/27 04:39:12;;;;;;;8.50;1.42;;;4.00;99.90;;;;;;5094873;28;20051;-69
2024/02/27 04:41:39;;;;;;;8.15;1.88;;;3.90;99.90;;;;;;5088722;28;20112;-67
2024/02/27 04:44:08;;;;;;;12.77;2.97;;;3.90;99.90;;;;;;5078238;28;20039;-68
2024/02/27 04:46:35;;;;;;;5.43;1.70;;;3.90;99.90;;;;;;5106583;28;20089;-67
2024/02/27 04:49:02;;;;;;;8.50;2.28;;;3.90;99.90;;;;;;5106217;28;20568;-68
2024/02/27 04:51:29;;;;;;;9.93;3.00;;;3.80;99.90;;;;;;5107492;28;20044;-68
2024/02/27 04:53:56;;;;;;;13.68;2.83;;;3.90;99.90;;;;;;5102203;28;20435;-69
2024/02/27 04:56:23;;;;;;;8.93;1.83;;;3.80;99.90;;;;;;5090445;28;20053;-68
2024/02/27 04:58:49;;;;;;;7.30;1.88;;;3.80;99.90;;;;;;5093989;28;20056;-69
2024/02/27 05:01:16;;;;;;;6.20;2.42;;;3.80;99.90;;;;;;5089782;28;20079;-70
2024/02/27 05:03:43;;;;;;;6.18;2.40;;;3.80;99.90;;;;;;5104653;28;20065;-68
2024/02/27 05:06:10;;;;;;;6.35;2.03;;;3.70;99.90;;;;;;5091193;28;20048;-70
2024/02/27 05:08:37;;;;;;;8.75;2.20;;;3.80;99.90;;;;;;5101899;28;20048;-68
2024/02/27 05:11:04;;;;;;;5.25;1.98;;;3.70;99.90;;;;;;5106217;28;20096;-68
2024/02/27 05:13:31;;;;;;;7.30;2.33;;;3.70;99.90;;;;;;5100347;28;20039;-70
2024/02/27 05:15:58;;;;;;;8.55;2.75;;;3.70;99.90;;;;;;5091945;28;20052;-68
2024/02/27 05:18:25;;;;;;;16.70;3.42;;;3.60;99.90;;;;;;5086217;28;20416;-70
2024/02/27 05:20:52;;;;;;;7.72;2.00;;;3.60;99.90;;;;;;5106770;28;20058;-68
2024/02/27 05:23:18;;;;;;;7.65;2.47;;;3.60;99.90;;;;;;5098460;28;20521;-70
2024/02/27 05:25:45;;;;;;;8.32;2.10;;;3.70;99.90;;;;;;5106848;28;20092;-68
2024/02/27 05:28:13;;;;;;;5.55;2.13;;;3.70;99.90;;;;;;5103939;28;20043;-69
2024/02/27 05:30:41;;;;;;;10.48;2.22;;;3.70;99.90;;;;;;5088016;28;20059;-68
2024/02/27 05:33:08;;;;;;;7.80;2.10;;;3.80;99.90;;;;;;5085922;28;20036;-68
2024/02/27 05:35:35;;;;;;;5.13;2.35;;;3.80;99.90;;;;;;5101173;28;20052;-68
2024/02/27 05:38:02;;;;;;;7.97;2.20;;;3.90;99.90;;;;;;5079847;28;20051;-69
2024/02/27 05:40:29;;;;;;;18.08;2.97;;;3.90;99.90;;;;;;5105369;28;20237;-69
2024/02/27 05:42:56;;;;;;;12.38;2.42;;;3.90;99.90;;;;;;5106150;28;20673;-69
2024/02/27 05:45:23;;;;;;;13.27;3.03;;;4.00;99.90;;;;;;5100813;28;20047;-69
2024/02/27 05:47:51;;;;;;;9.82;2.38;;;4.00;99.90;;;;;;5099695;28;20046;-69
2024/02/27 05:50:17;;;;;;;9.73;2.42;;;4.00;99.90;;;;;;5102567;28;20066;-69
2024/02/27 05:52:44;;;;;;;15.40;3.15;;;4.00;99.90;;;;;;5106788;28;20047;-69
2024/02/27 05:55:11;;;;;;;14.57;2.67;;;4.00;99.90;;;;;;5085793;28;20044;-69
2024/02/27 05:57:38;;;;;;;6.53;2.47;;;4.00;99.90;;;;;;5102839;28;20048;-69
2024/02/27 06:00:09;;;;;;;6.63;2.58;;;4.10;99.90;;;;;;5108646;28;20083;-69
2024/02/27 06:02:40;;;;;;;6.87;2.80;;;4.10;99.90;;;;;;5108669;28;20100;-68
2024/02/27 06:05:07;;;;;;;8.05;3.08;;;4.10;99.90;;;;;;5081910;28;20762;-68
2024/02/27 06:07:35;;;;;;;11.88;3.92;;;4.10;99.90;;;;;;5105836;28;20047;-68
2024/02/27 06:10:02;;;;;;;9.75;3.03;;;4.10;99.90;;;;;;5099010;28;20055;-69
2024/02/27 06:12:29;;;;;;;7.13;2.78;;;4.10;99.90;;;;;;5092649;28;20554;-67
2024/02/27 06:14:56;;;;;;;11.48;4.13;;;4.10;99.90;;;;;;5100845;28;20105;-67
2024/02/27 06:17:23;;;;;;;13.75;3.00;;;4.10;99.90;;;;;;5108218;28;20048;-68
2024/02/27 06:19:55;;;;;;;10.05;3.42;;;4.00;99.90;;;;;;5089888;28;20040;-68
2024/02/27 06:22:23;;;;;;;16.30;3.55;;;3.90;99.90;;;;;;5106058;28;20044;-68
2024/02/27 06:24:50;;;;;;;9.02;3.55;;;3.90;99.90;;;;;;5105042;28;20043;-68
2024/02/27 06:27:17;;;;;;;12.27;3.70;;;3.80;99.90;;;;;;5085436;28;20054;-68
2024/02/27 06:29:44;;;;;;;11.93;3.28;;;3.80;99.90;;;;;;5105043;28;20533;-68
2024/02/27 06:32:11;;;;;;;18.83;4.38;;;3.70;99.90;;;;;;5083379;28;20108;-68
2024/02/27 06:34:38;;;;;;;6.65;3.05;;;3.70;99.90;;;;;;5106073;28;20046;-68
2024/02/27 06:37:06;;;;;;;9.73;2.90;;;3.60;99.90;;;;;;5089931;28;20059;-69
2024/02/27 06:39:33;;;;;;;7.65;3.72;;;3.60;99.90;;;;;;5085947;28;20040;-68
2024/02/27 06:42:00;;;;;;;9.95;3.55;;;3.60;99.90;;;;;;5105330;28;20044;-68
2024/02/27 06:44:26;;;;;;;11.85;3.22;;;3.60;99.90;;;;;;4737251;28;10000272;-68
2024/02/27 06:46:53;;;;;;;8.88;3.47;;;3.50;99.90;;;;;;5104048;28;20302;-69
2024/02/27 06:49:20;;;;;;;15.85;4.45;;;3.40;99.90;;;;;;5105274;28;20505;-68
2024/02/27 06:51:49;;;;;;;13.95;3.70;;;3.30;99.90;;;;;;5105003;28;20052;-68
2024/02/27 06:54:17;;;;;;;13.32;3.67;;;3.30;99.90;;;;;;5093510;28;20040;-68
2024/02/27 06:56:44;;;;;;;8.93;3.85;;;3.20;99.90;;;;;;5098235;28;20081;-69
2024/02/27 06:59:11;;;;;;;9.05;4.07;;;3.30;99.90;;;;;;5099021;28;20039;-68
2024/02/27 07:01:38;;;;;;;8.85;3.30;;;3.20;99.90;;;;;;5096821;28;20462;-68
2024/02/27 07:04:04;;;;;;;10.13;4.45;;;3.30;99.90;;;;;;5103920;28;20495;-68
2024/02/27 07:06:31;;;;;;;9.65;4.60;;;3.20;99.90;;;;;;5092877;28;20131;-68
2024/02/27 07:08:58;;;;;;;14.13;4.75;;;3.20;99.90;;;;;;5108075;28;20086;-68
2024/02/27 07:11:27;;;;;;;15.95;4.80;;;3.10;99.90;;;;;;5106061;28;20132;-68
2024/02/27 07:13:54;;;;;;;12.77;4.63;;;3.00;99.90;;;;;;5089262;28;20452;-67
2024/02/27 07:16:21;;;;;;;10.85;4.65;;;3.00;99.90;;;;;;5106998;28;20051;-67
2024/02/27 07:18:48;;;;;;;14.10;4.65;;;3.00;99.90;;;;;;5107646;28;20044;-68
2024/02/27 07:21:15;;;;;;;12.52;5.18;;;3.00;99.90;;;;;;5107116;28;20062;-69
2024/02/27 07:23:46;;;;;;;14.77;4.85;;;3.00;99.90;;;;;;5090092;28;20050;-69
2024/02/27 07:26:13;;;;;;;15.27;5.05;;;3.00;99.90;;;;;;5100539;28;20052;-68
2024/02/27 07:28:40;;;;;;;14.48;5.50;;;3.10;99.90;;;;;;5106585;28;20382;-68
2024/02/27 07:31:07;;;;;;;9.93;3.95;;;3.10;99.90;;;;;;5107607;28;20486;-68
2024/02/27 07:33:34;;;;;;;10.57;4.15;;;3.20;99.90;;;;;;5088063;28;20040;-69
2024/02/27 07:36:01;;;;;;;16.80;4.75;;;3.20;99.90;;;;;;5106957;28;20047;-67
2024/02/27 07:38:28;;;;;;;16.88;4.45;;;3.30;99.90;;;;;;5104056;28;20128;-69
2024/02/27 07:40:55;;;;;;;9.77;4.90;;;3.40;99.90;;;;;;5107309;28;20052;-68
2024/02/27 07:43:22;;;;;;;12.50;4.97;;;3.50;99.90;;;;;;5102716;28;20051;-67
2024/02/27 07:45:51;;;;;;;11.30;4.18;;;3.60;99.90;;;;;;5094642;28;20052;-66
2024/02/27 07:48:20;;;;;;;11.27;4.75;;;3.60;99.90;;;;;;5103249;28;20047;-67
2024/02/27 07:50:51;;;;;;;10.27;4.90;;;3.70;99.90;;;;;;5105553;28;20052;-65
2024/02/27 07:53:18;;;;;;;8.02;5.35;;;3.80;99.90;;;;;;5084821;28;20087;-68
2024/02/27 07:55:44;;;;;;;18.38;5.93;;;4.00;99.90;;;;;;5088518;28;20413;-66
2024/02/27 07:58:12;;;;;;;14.95;4.85;;;4.00;99.90;;;;;;5105873;28;20043;-66
2024/02/27 08:00:39;;;;;;;12.73;5.00;;;4.10;99.90;;;;;;5105127;28;20061;-66
2024/02/27 08:03:06;;;;;;;11.20;5.07;;;4.10;99.90;;;;;;5107200;28;20043;-65
2024/02/27 08:05:33;;;;;;;9.30;5.80;;;4.20;99.90;;;;;;5097398;28;20046;-65
2024/02/27 08:08:00;;;;;;;11.30;5.15;;;4.30;99.90;;;;;;5104663;28;20079;-65
2024/02/27 08:10:27;;;;;;;17.20;5.97;;;4.30;99.90;;;;;;5089175;28;20120;-65
2024/02/27 08:12:53;;;;;;;18.58;7.45;;;4.40;99.90;;;;;;5106353;28;20047;-66
2024/02/27 08:15:20;;;;;;;15.30;4.97;;;4.40;99.90;;;;;;5106849;28;20067;-65
2024/02/27 08:17:47;;;;;;;10.60;5.68;;;4.40;99.90;;;;;;5106020;28;20127;-66
2024/02/27 08:20:14;;;;;;;11.23;5.70;;;4.40;99.90;;;;;;5107386;28;20036;-67
2024/02/27 08:22:41;;;;;;;14.15;6.00;;;4.40;99.90;;;;;;5106327;28;20048;-66
2024/02/27 08:25:08;;;;;;;16.42;7.00;;;4.50;99.90;;;;;;5079915;28;20051;-66
2024/02/27 08:27:35;;;;;;;13.52;5.30;;;4.50;99.90;;;;;;5102646;28;20134;-66
2024/02/27 08:30:04;;;;;;;9.27;5.22;;;4.50;99.90;;;;;;5106781;28;20086;-66
2024/02/27 08:32:31;;;;;;;15.82;6.10;;;4.60;99.90;;;;;;5104797;28;20122;-66
2024/02/27 08:34:58;;;;;;;12.98;5.90;;;4.60;99.90;;;;;;5100231;28;20040;-66
2024/02/27 08:37:27;;;;;;;11.90;4.72;;;4.60;99.90;;;;;;5103147;28;20043;-66
2024/02/27 08:39:53;;;;;;;16.92;6.15;;;4.70;99.90;;;;;;4748325;28;9999743;-66
2024/02/27 08:42:20;;;;;;;27.98;9.70;;;4.80;99.90;;;;;;5102646;28;20123;-65
2024/02/27 08:44:47;;;;;;;14.30;6.03;;;4.90;99.90;;;;;;5103260;28;20132;-66
2024/02/27 08:47:14;;;;;;;14.40;5.63;;;4.90;99.90;;;;;;5092258;28;20097;-65
2024/02/27 08:49:44;;;;;;;16.75;6.72;;;5.00;99.90;;;;;;5098843;28;20053;-66
2024/02/27 08:52:11;;;;;;;17.75;4.80;;;5.00;99.90;;;;;;5102878;28;20062;-66
2024/02/27 08:54:38;;;;;;;18.73;5.43;;;5.10;99.90;;;;;;5101988;28;20043;-67
2024/02/27 08:57:05;;;;;;;20.15;6.35;;;5.00;99.90;;;;;;5097561;28;20664;-66
2024/02/27 08:59:32;;;;;;;13.65;6.30;;;5.10;99.90;;;;;;5091215;28;20500;-64
2024/02/27 09:01:59;;;;;;;16.50;5.47;;;5.20;99.90;;;;;;5098714;28;20055;-66
2024/02/27 09:04:26;;;;;;;14.90;5.07;;;5.30;99.90;;;;;;5073310;28;20089;-64
2024/02/27 09:06:53;;;;;;;19.58;4.88;;;5.40;99.90;;;;;;5098904;28;20059;-66
2024/02/27 09:09:20;;;;;;;8.85;4.88;;;5.50;99.90;;;;;;5101597;28;20427;-65
2024/02/27 09:11:48;;;;;;;13.48;5.15;;;5.50;99.90;;;;;;5102140;28;20051;-65
2024/02/27 09:14:16;;;;;;;14.77;5.05;;;5.50;99.90;;;;;;5087909;28;20070;-66
2024/02/27 09:16:43;;;;;;;24.20;6.35;;;5.50;99.90;;;;;;5101453;28;20164;-65
2024/02/27 09:19:10;;;;;;;14.68;6.28;;;5.50;99.90;;;;;;5090405;28;20079;-65
2024/02/27 09:21:37;;;;;;;8.48;5.13;;;5.60;99.90;;;;;;5103035;28;20124;-65
2024/02/27 09:24:04;;;;;;;15.13;6.80;;;5.70;99.90;;;;;;5094564;28;20040;-66
2024/02/27 09:26:31;;;;;;;13.63;6.35;;;5.70;99.90;;;;;;5098905;28;20050;-66
2024/02/27 09:28:58;;;;;;;15.05;6.80;;;5.80;99.90;;;;;;5096390;28;20574;-66
2024/02/27 09:31:25;;;;;;;11.77;6.38;;;6.00;99.90;;;;;;5101656;28;20048;-66
2024/02/27 09:33:59;;;;;;;9.82;6.43;;;6.10;99.90;;;;;;5085831;28;20543;-66
2024/02/27 09:36:26;;;;;;;17.27;8.30;;;6.20;99.90;;;;;;5092611;28;20054;-67
2024/02/27 09:38:53;;;;;;;15.93;6.22;;;6.10;99.90;;;;;;5097322;28;20044;-66
2024/02/27 09:41:30;;;;;;;13.55;7.15;;;6.00;99.90;;;;;;5097270;28;20058;-65
2024/02/27 09:43:57;;;;;;;17.50;6.93;;;6.00;99.90;;;;;;5081086;28;20116;-68
2024/02/27 09:46:24;;;;;;;14.75;8.65;;;6.00;99.90;;;;;;5101925;28;20531;-65
2024/02/27 09:48:55;;;;;;;22.30;7.07;;;6.10;99.90;;;;;;5070512;28;20044;-65
2024/02/27 09:51:22;;;;;;;16.15;7.25;;;6.10;99.90;;;;;;5075302;28;20106;-67
2024/02/27 09:53:50;;;;;;;13.32;7.13;;;6.10;99.90;;;;;;5079621;28;20040;-66
2024/02/27 09:56:16;;;;;;;16.75;6.75;;;6.00;99.90;;;;;;5075573;28;20047;-66
2024/02/27 09:58:43;;;;;;;20.13;9.00;;;6.10;99.90;;;;;;5049651;28;20045;-66
2024/02/27 10:01:14;;;;;;;14.80;6.57;;;6.20;99.90;;;;;;5104109;28;20040;-64
2024/02/27 10:03:44;;;;;;;15.38;7.53;;;6.20;99.90;;;;;;5099804;28;20048;-67
2024/02/27 10:06:12;;;;;;;22.13;5.38;;;6.20;99.90;;;;;;5098519;28;20135;-66
2024/02/27 10:08:40;;;;;;;13.70;5.40;;;6.20;99.90;;;;;;5086170;28;20096;-67
2024/02/27 10:11:07;;;;;;;19.10;5.32;;;6.30;99.90;;;;;;5088022;28;20083;-66
2024/02/27 10:13:34;;;;;;;10.40;6.28;;;6.30;99.90;;;;;;5095133;28;20499;-66
2024/02/27 10:16:02;;;;;;;12.35;6.28;;;6.40;99.90;;;;;;5104231;28;20071;-66
2024/02/27 10:18:30;;;;;;;15.07;6.85;;;6.50;99.90;;;;;;5107132;28;20476;-66
2024/02/27 10:20:57;;;;;;;15.57;6.18;;;6.60;99.90;;;;;;5091376;28;20496;-66
2024/02/27 10:23:23;;;;;;;7.28;4.38;;;6.70;99.90;;;;;;5109579;28;20054;-63
2024/02/27 10:25:51;;;;;;;7.97;4.65;;;6.70;99.90;;;;;;5104912;28;20506;-64
2024/02/27 10:28:18;;;;;;;18.77;6.55;;;6.80;99.90;;;;;;5101839;28;20054;-66
2024/02/27 10:30:45;;;;;;;19.45;5.25;;;6.90;99.90;;;;;;5108775;28;20492;-66
2024/02/27 10:33:13;;;;;;;9.30;4.35;;;6.90;99.90;;;;;;5109508;28;20142;-66
2024/02/27 10:35:41;;;;;;;13.70;4.57;;;6.70;99.90;;;;;;5074668;28;20135;-65
2024/02/27 10:38:18;;;;;;;6.43;4.10;;;6.70;99.90;;;;;;5109118;28;20162;-66
2024/02/27 10:40:46;;;;;;;8.98;4.47;;;6.90;99.90;;;;;;5083278;28;20116;-66
2024/02/27 10:43:14;;;;;;;8.68;3.50;;;7.00;99.90;;;;;;5089824;28;20425;-66
2024/02/27 10:45:40;;;;;;;11.60;4.65;;;7.20;99.90;;;;;;5106084;28;20099;-66
2024/02/27 10:48:08;;;;;;;10.18;4.07;;;7.20;99.90;;;;;;5107044;28;20131;-65
2024/02/27 10:50:35;;;;;;;18.70;7.70;;;7.30;99.90;;;;;;5084560;28;20048;-65
2024/02/27 10:53:04;;;;;;;15.75;5.28;;;7.40;99.90;;;;;;5105811;28;20043;-65
2024/02/27 10:55:31;;;;;;;14.00;4.53;;;7.50;99.90;;;;;;5105362;28;20046;-65
2024/02/27 10:58:00;;;;;;;11.27;4.53;;;7.50;99.90;;;;;;5108039;28;20052;-65
2024/02/27 11:00:27;;;;;;;14.07;6.28;;;7.60;99.90;;;;;;5106690;28;20415;-65
2024/02/27 11:02:58;;;;;;;12.18;4.20;;;7.70;99.90;;;;;;5106853;28;20054;-65
2024/02/27 11:05:25;;;;;;;7.53;3.10;;;7.70;99.90;;;;;;5101179;28;20113;-65
2024/02/27 11:07:54;;;;;;;8.82;3.08;;;7.70;99.90;;;;;;5088997;28;20067;-66
2024/02/27 11:10:22;;;;;;;7.18;2.67;;;7.60;99.90;;;;;;5080293;28;20040;-66
2024/02/27 11:12:48;;;;;;;8.50;3.67;;;7.60;99.90;;;;;;5090092;28;20059;-66
2024/02/27 11:15:17;;;;;;;5.32;2.78;;;7.70;99.90;;;;;;5053109;28;20050;-67
2024/02/27 11:17:47;;;;;;;13.65;2.92;;;7.60;99.90;;;;;;5072060;28;20120;-65
2024/02/27 11:20:15;;;;;;;9.30;3.22;;;7.60;99.90;;;;;;5106568;28;20039;-66
2024/02/27 11:22:43;;;;;;;6.70;2.90;;;7.60;99.90;;;;;;5080432;28;20048;-66
2024/02/27 11:25:10;;;;;;;6.05;3.10;;;7.40;99.90;;;;;;5108161;28;20096;-66
2024/02/27 11:27:37;;;;;;;15.18;3.63;;;7.40;99.90;;;;;;5089164;28;20372;-66
2024/02/27 11:30:05;;;;;;;9.55;3.00;;;7.50;99.90;;;;;;5106466;28;20213;-66
2024/02/27 11:32:33;;;;;;;8.25;2.80;;;7.40;99.90;;;;;;5072653;28;20395;-66
2024/02/27 11:35:06;;;;;;;8.55;4.20;;;7.40;99.90;;;;;;5089905;28;20549;-66
2024/02/27 11:37:33;;;;;;;7.57;2.72;;;7.50;99.90;;;;;;5108315;28;20122;-66
2024/02/27 11:40:04;;;;;;;9.65;3.60;;;7.60;99.90;;;;;;5069101;28;20040;-65
2024/02/27 11:42:37;;;;;;;15.35;3.38;;;7.60;99.90;;;;;;5107964;28;20039;-66
2024/02/27 11:45:11;;;;;;;9.18;2.50;;;7.70;99.90;;;;;;5098019;28;20047;-66
2024/02/27 11:47:48;;;;;;;24.05;4.13;;;7.70;99.90;;;;;;5107864;28;20097;-67
2024/02/27 11:50:37;;;;;;;9.82;3.03;;;7.60;99.90;;;;;;5108106;28;20101;-66
2024/02/27 11:53:20;;;;;;;8.85;3.40;;;7.60;99.90;;;;;;5107442;28;20050;-66
2024/02/27 11:55:48;;;;;;;10.23;3.35;;;7.70;99.90;;;;;;5094293;28;20101;-66
2024/02/27 11:58:15;;;;;;;9.35;3.67;;;7.80;99.90;;;;;;5070153;28;20519;-66
2024/02/27 12:00:45;;;;;;;9.82;3.17;;;7.80;99.90;;;;;;5086948;28;20100;-67
2024/02/27 12:03:12;;;;;;;11.60;2.58;;;7.90;99.90;;;;;;5105021;28;20346;-66
2024/02/27 12:05:39;;;;;;;8.80;2.50;;;7.80;99.90;;;;;;5097226;28;20156;-66
2024/02/27 12:08:06;;;;;;;7.45;3.30;;;7.80;99.90;;;;;;5103841;28;20419;-66
2024/02/27 12:10:34;;;;;;;5.68;2.25;;;7.80;99.90;;;;;;5106601;28;20112;-66
2024/02/27 12:13:01;;;;;;;13.60;3.83;;;7.70;99.90;;;;;;5103647;28;20047;-66
2024/02/27 12:15:28;;;;;;;12.50;2.40;;;7.60;99.90;;;;;;5088592;28;20511;-66
2024/02/27 12:17:55;;;;;;;9.70;2.83;;;7.70;99.90;;;;;;5106827;28;20119;-66
2024/02/27 12:20:22;;;;;;;6.65;2.75;;;7.80;99.90;;;;;;5104069;28;20523;-66
2024/02/27 12:22:50;;;;;;;5.13;2.63;;;7.80;99.90;;;;;;5081827;28;20529;-66
2024/02/27 12:25:17;;;;;;;5.55;2.22;;;7.70;99.90;;;;;;5090489;28;20102;-66
2024/02/27 12:27:45;;;;;;;5.82;2.47;;;7.70;99.90;;;;;;5106436;28;20389;-65
2024/02/27 12:30:12;;;;;;;13.93;3.05;;;7.60;99.90;;;;;;5106402;28;20043;-66
2024/02/27 12:32:40;;;;;;;7.53;3.05;;;7.80;99.90;;;;;;5102204;28;20535;-66
2024/02/27 12:35:12;;;;;;;9.65;2.47;;;8.00;99.90;;;;;;5103300;28;20108;-66
2024/02/27 12:37:43;;;;;;;6.43;2.63;;;8.00;99.90;;;;;;5103424;28;20208;-66
2024/02/27 12:40:14;;;;;;;7.82;3.20;;;7.90;99.90;;;;;;5077169;28;20039;-65
2024/02/27 12:42:42;;;;;;;4.22;2.15;;;8.00;99.90;;;;;;5084259;28;20052;-66
2024/02/27 12:45:13;;;;;;;10.18;2.58;;;8.10;99.90;;;;;;5088254;28;20059;-66
2024/02/27 12:47:41;;;;;;;5.35;2.45;;;8.20;99.90;;;;;;5105935;28;20166;-65
2024/02/27 12:50:09;;;;;;;8.02;2.40;;;8.20;99.90;;;;;;5100938;28;20043;-65
2024/02/27 12:52:36;;;;;;;10.63;2.38;;;8.20;99.90;;;;;;5105796;28;20051;-66
2024/02/27 12:55:05;;;;;;;6.15;2.70;;;8.30;99.90;;;;;;5088303;28;20043;-66